Terminal Aerodrome Forecast
Issued by NWS

Home | Current Version | Previous Version | Text Only | Print | Product List | Glossary On
Versions: 1 2 3 4 5 6 7 8 9 10 11 12 13
000
FTUS42 KFFC 031136
TAFRYY
TAF
KRYY 031136Z 0312/0412 00000KT P6SM SCT070
     FM031700 21006KT P6SM FEW210
     FM040200 00000KT P6SM FEW220=

USA.gov is the U.S. government's official web portal to all federal, state and local government web resources and services.